Time;durP1;ratioP1;P1;durP2;ratioP2;P2;SDS_P1;SDS_P2;PMS_P1;PMS_P2;Temp;Humidity;BMP_temperature;BMP_pressure;BME280_temperature;BME280_humidity;BME280_pressure;Samples;Min_cycle;Max_cycle;Signal;HPM_P1;HPM_P2
2023/03/15 00:00:49;;;;;;;13.93;3.03;;;;;;;;;;5008704;28;20320;-71
2023/03/15 00:03:15;;;;;;;9.23;2.93;;;;;;;;;;5015197;28;20666;-71
2023/03/15 00:05:42;;;;;;;8.97;2.80;;;;;;;;;;5006855;28;20273;-69
2023/03/15 00:08:07;;;;;;;10.60;2.70;;;;;;;;;;5010251;28;20527;-69
2023/03/15 00:10:32;;;;;;;5.90;2.73;;;;;;;;;;5008028;28;20183;-69
2023/03/15 00:12:58;;;;;;;10.23;3.20;;;;;;;;;;5018166;28;20192;-69
2023/03/15 00:15:23;;;;;;;9.13;3.20;;;;;;;;;;5024579;28;20721;-69
2023/03/15 00:17:49;;;;;;;11.33;3.30;;;;;;;;;;5013298;28;20292;-69
2023/03/15 00:20:14;;;;;;;8.70;3.20;;;;;;;;;;5012457;28;20529;-69
2023/03/15 00:22:41;;;;;;;6.67;3.20;;;;;;;;;;5014009;28;20617;-68
2023/03/15 00:25:07;;;;;;;6.80;3.27;;;;;;;;;;5028058;28;20258;-69
2023/03/15 00:27:32;;;;;;;9.73;3.00;;;;;;;;;;5011255;28;20230;-70
2023/03/15 00:29:58;;;;;;;6.53;3.37;;;;;;;;;;5007986;28;20191;-67
2023/03/15 00:32:23;;;;;;;5.20;2.73;;;;;;;;;;5012797;28;20240;-67
2023/03/15 00:34:48;;;;;;;7.27;2.90;;;;;;;;;;5026318;28;20312;-67
2023/03/15 00:37:15;;;;;;;6.67;2.93;;;;;;;;;;5019599;28;20221;-67
2023/03/15 00:39:44;;;;;;;6.33;3.30;;;;;;;;;;5020258;28;20221;-69
2023/03/15 00:42:10;;;;;;;6.83;3.20;;;;;;;;;;5011928;28;20182;-68
2023/03/15 00:44:35;;;;;;;7.63;3.40;;;;;;;;;;5022715;28;20273;-69
2023/03/15 00:47:01;;;;;;;9.80;3.93;;;;;;;;;;5018185;28;20182;-68
2023/03/15 00:49:26;;;;;;;9.83;3.90;;;;;;;;;;5022862;28;20606;-69
2023/03/15 00:51:54;;;;;;;6.73;3.70;;;;;;;;;;5024747;28;20272;-68
2023/03/15 00:54:22;;;;;;;7.03;3.80;;;;;;;;;;5024715;28;20212;-69
2023/03/15 00:56:48;;;;;;;9.40;4.27;;;;;;;;;;5015236;28;20201;-69
2023/03/15 00:59:13;;;;;;;7.50;4.00;;;;;;;;;;5027083;28;20254;-68
2023/03/15 01:01:43;;;;;;;8.33;3.80;;;;;;;;;;5007820;28;20207;-69
2023/03/15 01:04:10;;;;;;;9.53;4.27;;;;;;;;;;5022047;28;20188;-68
2023/03/15 01:06:37;;;;;;;9.70;4.30;;;;;;;;;;5013386;28;20210;-68
2023/03/15 01:09:03;;;;;;;9.77;4.63;;;;;;;;;;5023106;28;20222;-67
2023/03/15 01:11:28;;;;;;;10.33;4.77;;;;;;;;;;5030069;28;20218;-67
2023/03/15 01:13:56;;;;;;;8.50;4.30;;;;;;;;;;5026002;28;20759;-69
2023/03/15 01:16:21;;;;;;;7.00;4.37;;;;;;;;;;5011862;28;20310;-69
2023/03/15 01:18:47;;;;;;;7.10;4.37;;;;;;;;;;5016895;28;20234;-68
2023/03/15 01:21:14;;;;;;;9.53;4.37;;;;;;;;;;5027190;28;20188;-68
2023/03/15 01:23:40;;;;;;;7.40;4.20;;;;;;;;;;5017697;28;20191;-68
2023/03/15 01:26:09;;;;;;;8.57;4.60;;;;;;;;;;5022959;28;20225;-69
2023/03/15 01:28:34;;;;;;;10.83;5.03;;;;;;;;;;5024436;28;20736;-67
2023/03/15 01:31:00;;;;;;;10.23;4.53;;;;;;;;;;5018659;28;20194;-68
2023/03/15 01:33:25;;;;;;;8.10;4.40;;;;;;;;;;5030939;28;20194;-68
2023/03/15 01:36:03;;;;;;;10.87;4.50;;;;;;;;;;5028524;28;20524;-69
2023/03/15 01:38:28;;;;;;;12.57;5.10;;;;;;;;;;5018612;28;20232;-67
2023/03/15 01:40:54;;;;;;;12.33;5.30;;;;;;;;;;5017394;28;20191;-68
2023/03/15 01:43:25;;;;;;;10.83;5.17;;;;;;;;;;5020284;28;20190;-68
2023/03/15 01:46:22;;;;;;;11.27;5.50;;;;;;;;;;5026631;28;20649;-68
2023/03/15 01:49:30;;;;;;;9.63;5.37;;;;;;;;;;5022349;28;20245;-67
2023/03/15 01:52:29;;;;;;;8.70;4.97;;;;;;;;;;5008232;28;20202;-68
2023/03/15 01:55:03;;;;;;;13.53;5.20;;;;;;;;;;5026995;28;20186;-67
2023/03/15 01:57:43;;;;;;;9.90;5.33;;;;;;;;;;5020506;28;20194;-69
2023/03/15 02:00:12;;;;;;;12.03;5.47;;;;;;;;;;5027786;28;20352;-68
2023/03/15 02:02:45;;;;;;;10.03;6.20;;;;;;;;;;5029857;28;20201;-68
2023/03/15 02:05:17;;;;;;;9.90;5.47;;;;;;;;;;5014052;28;20197;-68
2023/03/15 02:07:48;;;;;;;8.83;5.50;;;;;;;;;;5020316;28;20190;-68
2023/03/15 02:10:17;;;;;;;8.17;5.17;;;;;;;;;;5015933;28;20612;-68
2023/03/15 02:12:47;;;;;;;9.80;5.93;;;;;;;;;;5030228;28;20190;-69
2023/03/15 02:15:13;;;;;;;7.27;5.10;;;;;;;;;;5015954;28;20684;-67
2023/03/15 02:17:44;;;;;;;9.60;6.13;;;;;;;;;;5027390;28;20186;-68
2023/03/15 02:20:31;;;;;;;10.20;5.80;;;;;;;;;;5026976;28;20190;-67
2023/03/15 02:23:00;;;;;;;10.93;5.97;;;;;;;;;;5029001;28;20277;-67
2023/03/15 02:25:49;;;;;;;8.67;5.33;;;;;;;;;;5028476;28;20186;-67
2023/03/15 02:28:16;;;;;;;10.97;5.67;;;;;;;;;;5028595;28;20699;-67
2023/03/15 02:30:42;;;;;;;11.20;5.63;;;;;;;;;;5027373;28;20245;-68
2023/03/15 02:33:20;;;;;;;11.90;6.03;;;;;;;;;;5026518;28;20182;-68
2023/03/15 02:35:45;;;;;;;10.60;5.90;;;;;;;;;;5026616;28;20552;-68
2023/03/15 02:38:10;;;;;;;9.67;5.77;;;;;;;;;;5026837;28;20214;-67
2023/03/15 02:40:36;;;;;;;11.80;6.60;;;;;;;;;;5028613;28;20597;-68
2023/03/15 02:43:10;;;;;;;10.03;5.67;;;;;;;;;;5022867;28;20182;-67
2023/03/15 02:45:38;;;;;;;11.47;6.20;;;;;;;;;;5028310;28;20190;-69
2023/03/15 02:48:05;;;;;;;12.50;6.17;;;;;;;;;;5016959;28;20244;-68
2023/03/15 02:50:30;;;;;;;11.93;6.67;;;;;;;;;;5019376;28;20191;-71
2023/03/15 02:52:56;;;;;;;12.70;7.17;;;;;;;;;;5019787;28;20749;-72
2023/03/15 02:55:21;;;;;;;14.93;6.23;;;;;;;;;;5024697;28;20190;-71
2023/03/15 02:57:47;;;;;;;10.23;6.03;;;;;;;;;;5021240;28;20207;-71
2023/03/15 03:00:13;;;;;;;11.00;6.87;;;;;;;;;;5026019;28;20206;-71
2023/03/15 03:02:44;;;;;;;12.13;6.10;;;;;;;;;;5022308;28;20194;-73
2023/03/15 03:05:14;;;;;;;9.93;6.63;;;;;;;;;;5025904;28;20261;-70
2023/03/15 03:07:41;;;;;;;13.47;6.40;;;;;;;;;;5021900;28;20467;-69
2023/03/15 03:10:09;;;;;;;14.70;6.63;;;;;;;;;;5024632;28;20194;-71
2023/03/15 03:12:34;;;;;;;12.30;6.63;;;;;;;;;;5021594;28;20626;-71
2023/03/15 03:15:01;;;;;;;14.10;7.07;;;;;;;;;;5019892;28;20273;-70
2023/03/15 03:17:27;;;;;;;12.37;6.87;;;;;;;;;;5017600;28;20198;-69
2023/03/15 03:19:52;;;;;;;15.40;7.17;;;;;;;;;;5019118;28;20616;-69
2023/03/15 03:22:18;;;;;;;16.50;6.83;;;;;;;;;;5024854;28;20190;-68
2023/03/15 03:24:44;;;;;;;13.40;6.73;;;;;;;;;;5028066;28;20197;-68
2023/03/15 03:27:13;;;;;;;18.10;7.27;;;;;;;;;;5035975;28;20234;-68
2023/03/15 03:29:39;;;;;;;14.67;6.87;;;;;;;;;;5017658;28;20269;-68
2023/03/15 03:32:05;;;;;;;13.10;7.53;;;;;;;;;;5012958;28;20385;-69
2023/03/15 03:34:30;;;;;;;14.67;7.37;;;;;;;;;;5012316;28;20193;-69
2023/03/15 03:36:56;;;;;;;16.53;7.07;;;;;;;;;;5023122;28;20194;-68
2023/03/15 03:39:22;;;;;;;13.90;6.90;;;;;;;;;;4989855;28;20198;-68
2023/03/15 03:41:48;;;;;;;15.83;8.07;;;;;;;;;;5025456;28;20344;-68
2023/03/15 03:44:14;;;;;;;17.30;7.30;;;;;;;;;;5024189;28;20197;-67
2023/03/15 03:46:39;;;;;;;14.13;7.90;;;;;;;;;;5020196;28;20201;-68
2023/03/15 03:49:05;;;;;;;16.97;7.37;;;;;;;;;;5028604;28;20188;-68
2023/03/15 03:51:32;;;;;;;14.97;7.27;;;;;;;;;;5023496;28;20197;-68
2023/03/15 03:53:58;;;;;;;14.80;7.27;;;;;;;;;;5019467;28;20195;-68
2023/03/15 03:56:23;;;;;;;16.17;7.23;;;;;;;;;;5025843;28;20189;-67
2023/03/15 03:58:49;;;;;;;17.30;7.60;;;;;;;;;;5022817;28;20210;-68
2023/03/15 04:01:15;;;;;;;13.23;7.20;;;;;;;;;;5014323;28;20621;-68
2023/03/15 04:03:41;;;;;;;15.20;7.50;;;;;;;;;;5027921;28;20273;-67
2023/03/15 04:06:06;;;;;;;15.17;8.00;;;;;;;;;;5018443;28;20202;-67
2023/03/15 04:08:32;;;;;;;15.30;7.30;;;;;;;;;;5026438;28;20193;-67
2023/03/15 04:10:57;;;;;;;13.07;7.37;;;;;;;;;;5028675;28;20193;-67
2023/03/15 04:13:24;;;;;;;16.47;7.60;;;;;;;;;;5027461;28;20178;-67
2023/03/15 04:15:50;;;;;;;18.33;7.17;;;;;;;;;;5027327;28;20186;-67
2023/03/15 04:18:16;;;;;;;14.67;6.97;;;;;;;;;;5020091;28;20225;-67
2023/03/15 04:20:48;;;;;;;16.37;7.30;;;;;;;;;;5025325;28;20598;-67
2023/03/15 04:23:14;;;;;;;17.17;7.70;;;;;;;;;;5026327;28;20182;-68
2023/03/15 04:25:41;;;;;;;13.47;7.47;;;;;;;;;;5024416;28;20248;-68
2023/03/15 04:28:09;;;;;;;14.23;6.90;;;;;;;;;;5025754;28;20313;-67
2023/03/15 04:30:36;;;;;;;15.33;7.37;;;;;;;;;;5021483;28;20382;-67
2023/03/15 04:33:02;;;;;;;15.50;7.30;;;;;;;;;;5018629;28;20189;-68
2023/03/15 04:35:33;;;;;;;18.40;7.43;;;;;;;;;;5025583;28;20220;-68
2023/03/15 04:37:58;;;;;;;17.37;7.30;;;;;;;;;;5010406;28;20207;-67
2023/03/15 04:40:24;;;;;;;16.60;7.53;;;;;;;;;;5012648;28;20194;-68
2023/03/15 04:42:51;;;;;;;15.83;7.33;;;;;;;;;;5014452;28;20247;-67
2023/03/15 04:45:17;;;;;;;14.93;7.23;;;;;;;;;;5023384;28;20194;-67
2023/03/15 04:47:42;;;;;;;16.13;7.30;;;;;;;;;;5024484;28;20267;-68
2023/03/15 04:50:08;;;;;;;13.37;7.40;;;;;;;;;;5017668;28;20260;-68
2023/03/15 04:52:34;;;;;;;16.63;7.00;;;;;;;;;;5024820;28;20217;-68
2023/03/15 04:54:59;;;;;;;17.63;7.40;;;;;;;;;;5014475;28;20213;-68
2023/03/15 04:57:25;;;;;;;15.70;7.43;;;;;;;;;;5022169;28;20582;-68
2023/03/15 04:59:50;;;;;;;15.93;7.00;;;;;;;;;;5020335;28;20230;-68
2023/03/15 05:02:15;;;;;;;18.80;6.97;;;;;;;;;;5017493;28;20190;-68
2023/03/15 05:04:41;;;;;;;20.80;7.47;;;;;;;;;;5021915;28;20290;-68
2023/03/15 05:07:07;;;;;;;18.93;7.57;;;;;;;;;;5023550;28;20190;-68
2023/03/15 05:09:36;;;;;;;18.27;7.30;;;;;;;;;;5014617;28;20646;-70
2023/03/15 05:12:03;;;;;;;17.70;7.67;;;;;;;;;;5009938;28;20195;-67
2023/03/15 05:14:28;;;;;;;20.57;7.57;;;;;;;;;;5013295;28;20191;-68
2023/03/15 05:16:55;;;;;;;19.13;7.20;;;;;;;;;;5020726;28;20193;-68
2023/03/15 05:19:20;;;;;;;20.83;7.10;;;;;;;;;;5017657;28;20214;-67
2023/03/15 05:21:46;;;;;;;17.80;7.10;;;;;;;;;;5025661;28;20658;-70
2023/03/15 05:24:11;;;;;;;21.27;7.57;;;;;;;;;;5026471;28;20644;-68
2023/03/15 05:26:36;;;;;;;17.57;7.27;;;;;;;;;;5015114;28;20421;-68
2023/03/15 05:29:02;;;;;;;17.97;7.83;;;;;;;;;;5026991;28;20266;-69
2023/03/15 05:31:28;;;;;;;15.93;6.80;;;;;;;;;;5021312;28;20195;-68
2023/03/15 05:33:53;;;;;;;15.50;6.90;;;;;;;;;;5015766;28;20518;-67
2023/03/15 05:36:18;;;;;;;17.03;6.63;;;;;;;;;;5019487;28;20287;-68
2023/03/15 05:38:44;;;;;;;13.60;6.90;;;;;;;;;;5026713;28;20222;-68
2023/03/15 05:41:09;;;;;;;16.87;6.73;;;;;;;;;;5019555;28;20183;-67
2023/03/15 05:43:34;;;;;;;15.50;7.33;;;;;;;;;;5019001;28;20199;-68
2023/03/15 05:46:00;;;;;;;15.47;6.93;;;;;;;;;;5011927;28;20901;-68
2023/03/15 05:48:26;;;;;;;16.23;6.20;;;;;;;;;;5015480;28;20186;-68
2023/03/15 05:50:51;;;;;;;15.17;7.27;;;;;;;;;;5021705;28;20213;-67
2023/03/15 05:53:17;;;;;;;14.63;6.80;;;;;;;;;;5023115;28;20214;-67
2023/03/15 05:55:42;;;;;;;17.53;7.07;;;;;;;;;;5029229;28;20354;-67
2023/03/15 05:58:07;;;;;;;19.83;7.30;;;;;;;;;;5021852;28;20210;-67
2023/03/15 06:00:33;;;;;;;13.67;6.87;;;;;;;;;;5023962;28;20776;-67
2023/03/15 06:02:59;;;;;;;15.53;7.40;;;;;;;;;;5024286;28;20194;-68
2023/03/15 06:05:24;;;;;;;25.17;8.27;;;;;;;;;;5021497;28;20186;-68
2023/03/15 06:07:49;;;;;;;18.77;7.63;;;;;;;;;;5017838;28;20190;-68
2023/03/15 06:10:15;;;;;;;18.77;6.90;;;;;;;;;;5022376;28;20198;-69
2023/03/15 06:12:40;;;;;;;19.10;7.47;;;;;;;;;;5022624;28;20205;-68
2023/03/15 06:15:07;;;;;;;18.53;6.57;;;;;;;;;;5032051;28;20204;-68
2023/03/15 06:17:32;;;;;;;16.23;6.73;;;;;;;;;;5009651;28;20190;-67
2023/03/15 06:19:57;;;;;;;18.53;7.63;;;;;;;;;;5020955;28;20242;-67
2023/03/15 06:22:23;;;;;;;17.10;7.43;;;;;;;;;;5026359;28;20186;-67
2023/03/15 06:24:48;;;;;;;13.97;6.37;;;;;;;;;;5019104;28;20203;-67
2023/03/15 06:27:14;;;;;;;18.70;6.47;;;;;;;;;;5016836;28;20602;-67
2023/03/15 06:29:39;;;;;;;17.60;6.30;;;;;;;;;;5026279;28;20193;-68
2023/03/15 06:32:05;;;;;;;16.77;6.13;;;;;;;;;;5023826;28;20226;-69
2023/03/15 06:34:30;;;;;;;20.57;6.10;;;;;;;;;;5020261;28;20613;-68
2023/03/15 06:36:55;;;;;;;13.27;5.17;;;;;;;;;;5013758;28;20271;-68
2023/03/15 06:39:22;;;;;;;18.87;6.80;;;;;;;;;;5032516;28;20214;-68
2023/03/15 06:41:47;;;;;;;16.17;6.33;;;;;;;;;;5022709;28;20248;-68
2023/03/15 06:44:13;;;;;;;12.97;5.67;;;;;;;;;;5026923;28;20537;-68
2023/03/15 06:46:38;;;;;;;14.80;5.63;;;;;;;;;;5023082;28;20233;-68
2023/03/15 06:49:04;;;;;;;13.90;5.33;;;;;;;;;;5008386;28;20342;-68
2023/03/15 06:51:29;;;;;;;18.90;5.77;;;;;;;;;;5021491;28;20229;-68
2023/03/15 06:53:55;;;;;;;19.63;6.00;;;;;;;;;;5019580;28;20205;-68
2023/03/15 06:56:20;;;;;;;15.50;4.83;;;;;;;;;;5017022;28;20183;-68
2023/03/15 06:58:46;;;;;;;17.90;6.00;;;;;;;;;;5014593;28;20301;-68
2023/03/15 07:01:12;;;;;;;13.30;4.80;;;;;;;;;;5022599;28;20249;-68
2023/03/15 07:03:38;;;;;;;12.90;4.40;;;;;;;;;;5024205;28;20194;-68
2023/03/15 07:06:04;;;;;;;13.17;4.60;;;;;;;;;;5023207;28;20263;-68
2023/03/15 07:08:30;;;;;;;15.07;4.73;;;;;;;;;;5009912;28;20198;-68
2023/03/15 07:10:55;;;;;;;16.07;4.33;;;;;;;;;;5018616;28;20622;-68
2023/03/15 07:13:20;;;;;;;11.43;3.90;;;;;;;;;;5021209;28;20198;-68
2023/03/15 07:15:54;;;;;;;11.87;3.23;;;;;;;;;;5011249;28;20713;-68
2023/03/15 07:18:19;;;;;;;12.73;3.00;;;;;;;;;;5018243;28;20210;-69
2023/03/15 07:20:45;;;;;;;9.10;3.67;;;;;;;;;;5029075;28;20202;-68
2023/03/15 07:23:10;;;;;;;11.03;3.27;;;;;;;;;;5018232;28;20276;-68
2023/03/15 07:25:36;;;;;;;12.03;3.77;;;;;;;;;;5014491;28;20186;-68
2023/03/15 07:28:01;;;;;;;9.30;3.23;;;;;;;;;;5023009;28;20445;-68
2023/03/15 07:30:27;;;;;;;6.83;2.50;;;;;;;;;;5010823;28;20220;-67
2023/03/15 07:32:52;;;;;;;12.00;2.33;;;;;;;;;;5027487;28;20190;-68
2023/03/15 07:35:17;;;;;;;8.30;2.63;;;;;;;;;;5011261;28;20194;-68
2023/03/15 07:37:43;;;;;;;6.30;2.23;;;;;;;;;;5011256;28;20185;-67
2023/03/15 07:40:09;;;;;;;9.80;2.07;;;;;;;;;;5015622;28;20351;-68
2023/03/15 07:42:36;;;;;;;11.40;2.10;;;;;;;;;;5016384;28;20272;-68
2023/03/15 07:45:02;;;;;;;8.53;1.60;;;;;;;;;;5021602;28;20730;-68
2023/03/15 07:47:28;;;;;;;11.47;1.70;;;;;;;;;;5014082;28;20193;-67
2023/03/15 07:49:53;;;;;;;12.67;2.10;;;;;;;;;;5008639;28;20646;-68
2023/03/15 07:52:19;;;;;;;9.47;1.53;;;;;;;;;;5017741;28;20210;-67
2023/03/15 07:54:46;;;;;;;4.13;1.27;;;;;;;;;;5013153;28;20206;-66
2023/03/15 07:57:11;;;;;;;9.57;1.40;;;;;;;;;;5009769;28;20275;-67
2023/03/15 07:59:37;;;;;;;5.83;1.40;;;;;;;;;;5007274;28;20390;-68
2023/03/15 08:02:02;;;;;;;8.20;1.27;;;;;;;;;;5016536;28;20186;-67
2023/03/15 08:04:27;;;;;;;8.53;1.40;;;;;;;;;;5011275;28;20278;-67
2023/03/15 08:06:53;;;;;;;4.47;1.23;;;;;;;;;;5026302;28;20192;-67
2023/03/15 08:09:18;;;;;;;3.80;1.07;;;;;;;;;;5012320;28;20197;-67
2023/03/15 08:11:43;;;;;;;11.07;1.40;;;;;;;;;;5025629;28;20190;-67
2023/03/15 08:14:09;;;;;;;7.33;1.37;;;;;;;;;;5010775;28;20334;-67
2023/03/15 08:16:34;;;;;;;11.43;1.53;;;;;;;;;;5014424;28;20201;-68
2023/03/15 08:18:59;;;;;;;9.03;1.10;;;;;;;;;;5016336;28;20217;-68
2023/03/15 08:21:25;;;;;;;7.20;1.03;;;;;;;;;;5016258;28;20248;-67
2023/03/15 08:23:50;;;;;;;4.90;1.10;;;;;;;;;;5010027;28;20244;-67
2023/03/15 08:26:15;;;;;;;6.73;1.27;;;;;;;;;;5025275;28;20190;-67
2023/03/15 08:28:41;;;;;;;8.77;1.23;;;;;;;;;;5025188;28;20237;-68
2023/03/15 08:31:07;;;;;;;5.03;0.77;;;;;;;;;;5012605;28;20224;-68
2023/03/15 08:33:33;;;;;;;8.83;1.30;;;;;;;;;;5016474;28;20187;-67
2023/03/15 08:35:58;;;;;;;4.03;0.97;;;;;;;;;;5013606;28;20244;-68
2023/03/15 08:38:25;;;;;;;5.07;0.90;;;;;;;;;;5012400;28;20238;-68
2023/03/15 08:40:55;;;;;;;5.70;1.30;;;;;;;;;;5025005;28;20272;-67
2023/03/15 08:43:20;;;;;;;3.70;0.87;;;;;;;;;;5017716;28;20504;-67
2023/03/15 08:45:48;;;;;;;5.73;1.17;;;;;;;;;;5020892;28;20193;-67
2023/03/15 08:48:13;;;;;;;7.57;0.90;;;;;;;;;;5019043;28;20195;-67
2023/03/15 08:50:38;;;;;;;5.87;0.97;;;;;;;;;;5009315;28;20195;-68
2023/03/15 08:53:04;;;;;;;19.37;3.00;;;;;;;;;;5027190;28;20233;-67
2023/03/15 08:55:29;;;;;;;4.07;0.70;;;;;;;;;;5026584;28;20202;-67
2023/03/15 08:57:55;;;;;;;6.47;0.80;;;;;;;;;;5012428;28;20201;-67
2023/03/15 09:00:21;;;;;;;9.67;1.00;;;;;;;;;;5017582;28;20622;-67
2023/03/15 09:02:48;;;;;;;9.20;0.97;;;;;;;;;;5025492;28;20331;-68
2023/03/15 09:05:14;;;;;;;5.50;1.20;;;;;;;;;;5027473;28;20194;-67
2023/03/15 09:07:41;;;;;;;5.77;0.90;;;;;;;;;;5015354;28;20244;-68
2023/03/15 09:10:08;;;;;;;9.13;1.20;;;;;;;;;;5026849;28;20182;-68
2023/03/15 09:12:34;;;;;;;7.53;0.90;;;;;;;;;;5025737;28;20226;-67
2023/03/15 09:14:59;;;;;;;6.27;1.00;;;;;;;;;;5022551;28;20218;-67
2023/03/15 09:17:25;;;;;;;6.87;0.80;;;;;;;;;;5011056;28;20190;-67
2023/03/15 09:19:51;;;;;;;10.50;1.00;;;;;;;;;;5025830;28;20224;-68
2023/03/15 09:22:16;;;;;;;4.10;0.90;;;;;;;;;;5018318;28;20211;-67
2023/03/15 09:24:42;;;;;;;7.00;0.87;;;;;;;;;;5012145;28;20621;-68
2023/03/15 09:27:07;;;;;;;9.03;1.13;;;;;;;;;;5021584;28;20234;-67
2023/03/15 09:29:33;;;;;;;4.47;1.00;;;;;;;;;;5023931;28;20641;-67
2023/03/15 09:32:00;;;;;;;6.37;1.20;;;;;;;;;;5019190;28;21429;-67
2023/03/15 09:34:26;;;;;;;8.17;1.10;;;;;;;;;;5021932;28;20191;-67
2023/03/15 09:36:51;;;;;;;7.90;1.07;;;;;;;;;;5024025;28;20243;-68
2023/03/15 09:39:18;;;;;;;10.87;1.40;;;;;;;;;;5021375;28;20221;-68
2023/03/15 09:41:48;;;;;;;6.73;0.97;;;;;;;;;;5022850;28;20348;-67
2023/03/15 09:44:35;;;;;;;9.43;1.07;;;;;;;;;;5010419;28;20201;-67
2023/03/15 09:47:10;;;;;;;7.57;1.10;;;;;;;;;;5019491;28;20205;-68
2023/03/15 09:49:48;;;;;;;7.23;1.30;;;;;;;;;;5011886;28;20551;-68
2023/03/15 09:52:33;;;;;;;10.43;1.37;;;;;;;;;;5019045;28;20186;-68
2023/03/15 09:55:11;;;;;;;10.33;1.20;;;;;;;;;;5017023;28;20196;-68
2023/03/15 09:57:45;;;;;;;7.57;1.00;;;;;;;;;;5022287;28;20195;-68
2023/03/15 10:00:14;;;;;;;8.00;1.03;;;;;;;;;;5022224;28;20355;-68
2023/03/15 10:02:46;;;;;;;10.83;1.30;;;;;;;;;;5019680;28;20595;-67
2023/03/15 10:05:18;;;;;;;8.00;0.90;;;;;;;;;;5024716;28;20190;-67
2023/03/15 10:07:43;;;;;;;12.40;1.10;;;;;;;;;;5015017;28;20194;-68
2023/03/15 10:10:23;;;;;;;6.63;1.13;;;;;;;;;;5011817;28;20233;-67
2023/03/15 10:13:02;;;;;;;8.10;1.00;;;;;;;;;;5024249;28;20262;-67
2023/03/15 10:15:56;;;;;;;7.90;0.97;;;;;;;;;;5019571;28;20186;-69
2023/03/15 10:18:33;;;;;;;5.43;1.00;;;;;;;;;;5017592;28;20327;-68
2023/03/15 10:21:15;;;;;;;5.47;0.80;;;;;;;;;;5023069;28;20629;-68
2023/03/15 10:23:48;;;;;;;12.68;1.20;;;;;;;;;;5014996;28;20258;-69
2023/03/15 10:26:19;;;;;;;5.40;0.70;;;;;;;;;;5019246;28;20676;-68
2023/03/15 10:28:46;;;;;;;8.93;1.17;;;;;;;;;;5014118;28;20195;-68
2023/03/15 10:31:19;;;;;;;7.20;1.48;;;;;;;;;;5025884;28;20226;-66
2023/03/15 10:33:46;;;;;;;6.55;1.20;;;;;;;;;;5014122;28;20679;-67
2023/03/15 10:36:16;;;;;;;9.02;1.13;;;;;;;;;;5037485;28;20521;-67
2023/03/15 10:38:41;;;;;;;4.15;0.73;;;;;;;;;;5031025;28;20212;-67
2023/03/15 10:41:10;;;;;;;7.67;1.30;;;;;;;;;;5029300;28;20201;-67
2023/03/15 10:43:38;;;;;;;3.50;0.50;;;;;;;;;;5020884;28;20787;-66
2023/03/15 10:46:12;;;;;;;4.95;1.17;;;;;;;;;;5020829;28;20276;-66
2023/03/15 10:48:50;;;;;;;2.83;0.77;;;;;;;;;;5018378;28;20196;-66
2023/03/15 10:51:24;;;;;;;6.50;1.20;;;;;;;;;;5025765;28;20239;-66
2023/03/15 10:53:58;;;;;;;5.90;1.05;;;;;;;;;;5022789;28;20186;-67
2023/03/15 10:56:26;;;;;;;5.10;0.60;;;;;;;;;;5024861;28;20202;-67
2023/03/15 10:58:55;;;;;;;6.15;0.90;;;;;;;;;;5021825;28;20513;-67
2023/03/15 11:01:26;;;;;;;5.53;0.90;;;;;;;;;;5024038;28;20606;-66
2023/03/15 11:04:15;;;;;;;8.88;1.20;;;;;;;;;;5024458;28;20189;-67
2023/03/15 11:06:45;;;;;;;8.98;0.85;;;;;;;;;;5026650;28;20194;-67
2023/03/15 11:09:17;;;;;;;8.15;1.77;;;;;;;;;;5024065;28;20290;-67
2023/03/15 11:11:58;;;;;;;6.70;0.70;;;;;;;;;;5019590;28;20187;-69
2023/03/15 11:14:26;;;;;;;5.60;0.90;;;;;;;;;;5019854;28;20575;-67
2023/03/15 11:16:57;;;;;;;1.90;0.50;;;;;;;;;;5013175;28;20605;-67
2023/03/15 11:19:26;;;;;;;6.47;1.23;;;;;;;;;;5023342;28;20201;-66
2023/03/15 11:21:53;;;;;;;5.30;0.88;;;;;;;;;;5022240;28;20189;-67
2023/03/15 11:24:30;;;;;;;8.57;0.80;;;;;;;;;;5025861;28;20539;-67
2023/03/15 11:27:01;;;;;;;10.25;1.17;;;;;;;;;;5019209;28;20229;-67
2023/03/15 11:29:32;;;;;;;6.80;0.60;;;;;;;;;;5016545;28;20236;-66
2023/03/15 11:32:01;;;;;;;8.45;1.08;;;;;;;;;;5018963;28;20236;-67
2023/03/15 11:34:54;;;;;;;4.30;0.80;;;;;;;;;;5016632;28;20445;-67
2023/03/15 11:37:25;;;;;;;4.32;0.57;;;;;;;;;;5021761;28;20261;-66
2023/03/15 11:40:03;;;;;;;3.53;0.77;;;;;;;;;;5016583;28;20231;-66
2023/03/15 11:42:34;;;;;;;3.78;0.65;;;;;;;;;;5018216;28;20190;-66
2023/03/15 11:45:15;;;;;;;4.20;2.03;;;;;;;;;;5017469;28;20544;-67
2023/03/15 11:47:46;;;;;;;7.07;1.00;;;;;;;;;;5008050;28;20198;-66
2023/03/15 11:50:14;;;;;;;4.78;0.70;;;;;;;;;;5020357;28;20600;-67
2023/03/15 11:52:41;;;;;;;3.10;0.60;;;;;;;;;;5007021;28;20537;-67
2023/03/15 11:55:16;;;;;;;5.40;0.75;;;;;;;;;;5013096;28;20503;-67
2023/03/15 11:57:44;;;;;;;5.57;0.70;;;;;;;;;;5015700;28;20679;-67
2023/03/15 12:00:21;;;;;;;3.92;0.65;;;;;;;;;;5007667;28;20214;-68
2023/03/15 12:02:50;;;;;;;4.40;0.77;;;;;;;;;;5017477;28;20190;-70
2023/03/15 12:05:48;;;;;;;3.42;0.45;;;;;;;;;;5017390;28;20455;-67
2023/03/15 12:08:23;;;;;;;2.70;0.50;;;;;;;;;;5021640;28;20840;-67
2023/03/15 12:10:50;;;;;;;6.30;0.80;;;;;;;;;;5019815;28;20186;-67
2023/03/15 12:13:27;;;;;;;4.25;0.70;;;;;;;;;;5011475;28;20231;-66
2023/03/15 12:15:53;;;;;;;3.47;0.82;;;;;;;;;;5014005;28;20185;-66
2023/03/15 12:18:24;;;;;;;6.30;0.73;;;;;;;;;;5012622;28;20237;-66
2023/03/15 12:21:09;;;;;;;5.25;0.77;;;;;;;;;;5022097;28;20182;-66
2023/03/15 12:24:07;;;;;;;8.65;0.80;;;;;;;;;;5022858;28;20634;-66
2023/03/15 12:26:56;;;;;;;3.60;0.60;;;;;;;;;;5014555;28;20309;-66
2023/03/15 12:29:31;;;;;;;3.50;0.70;;;;;;;;;;5016326;28;20240;-67
2023/03/15 12:32:00;;;;;;;4.32;0.68;;;;;;;;;;5016362;28;20280;-67
2023/03/15 12:34:56;;;;;;;4.05;1.02;;;;;;;;;;5026487;28;20928;-67
2023/03/15 12:37:30;;;;;;;6.03;0.90;;;;;;;;;;5007445;28;20281;-66
2023/03/15 12:40:21;;;;;;;2.30;0.43;;;;;;;;;;5012718;28;20225;-67
2023/03/15 12:42:46;;;;;;;5.80;1.23;;;;;;;;;;5014044;28;20197;-67
2023/03/15 12:45:14;;;;;;;2.92;0.47;;;;;;;;;;5015444;28;20241;-67
2023/03/15 12:47:50;;;;;;;2.40;0.40;;;;;;;;;;5028124;28;20197;-66
2023/03/15 12:50:49;;;;;;;3.03;0.85;;;;;;;;;;5017503;28;20277;-67
2023/03/15 12:53:37;;;;;;;6.22;0.70;;;;;;;;;;5024379;28;20317;-67
2023/03/15 12:56:28;;;;;;;2.95;0.80;;;;;;;;;;5021822;28;20247;-67
2023/03/15 12:59:00;;;;;;;7.25;1.02;;;;;;;;;;5016578;28;20904;-67
2023/03/15 13:01:26;;;;;;;5.18;0.65;;;;;;;;;;5017443;28;20214;-66
2023/03/15 13:03:57;;;;;;;3.20;0.70;;;;;;;;;;5024419;28;20217;-66
2023/03/15 13:07:01;;;;;;;5.88;0.80;;;;;;;;;;5017227;28;20200;-66
2023/03/15 13:09:52;;;;;;;3.55;0.80;;;;;;;;;;5030803;28;20257;-66
2023/03/15 13:12:30;;;;;;;3.85;0.47;;;;;;;;;;5022736;28;20341;-66
2023/03/15 13:15:05;;;;;;;4.72;0.60;;;;;;;;;;5021783;28;20194;-68
2023/03/15 13:17:44;;;;;;;3.97;1.00;;;;;;;;;;5029366;28;20248;-67
2023/03/15 13:20:27;;;;;;;4.85;0.57;;;;;;;;;;5029512;28;20352;-67
2023/03/15 13:23:01;;;;;;;7.60;0.80;;;;;;;;;;5017456;28;20281;-67
2023/03/15 13:25:52;;;;;;;5.03;0.70;;;;;;;;;;5029787;28;20186;-68
2023/03/15 13:28:23;;;;;;;5.75;0.90;;;;;;;;;;5029273;28;20638;-67
2023/03/15 13:30:51;;;;;;;7.07;0.85;;;;;;;;;;5024602;28;20269;-66
2023/03/15 13:33:25;;;;;;;4.32;0.68;;;;;;;;;;5027204;28;20542;-67
2023/03/15 13:35:53;;;;;;;4.28;0.63;;;;;;;;;;5015812;28;20654;-66
2023/03/15 13:38:22;;;;;;;3.75;0.45;;;;;;;;;;5018895;28;20214;-66
2023/03/15 13:40:47;;;;;;;5.03;1.05;;;;;;;;;;5018623;28;20282;-65
2023/03/15 13:43:13;;;;;;;3.22;0.55;;;;;;;;;;5029583;28;20305;-65
2023/03/15 13:45:41;;;;;;;4.45;0.75;;;;;;;;;;5025449;28;20202;-66
2023/03/15 13:48:07;;;;;;;5.25;1.13;;;;;;;;;;5027491;28;20174;-67
2023/03/15 13:50:33;;;;;;;2.13;0.68;;;;;;;;;;5025209;28;20206;-66
2023/03/15 13:52:59;;;;;;;4.03;0.70;;;;;;;;;;5022316;28;20198;-66
2023/03/15 13:55:30;;;;;;;4.78;1.00;;;;;;;;;;5021531;28;20534;-67
2023/03/15 13:58:03;;;;;;;3.78;0.55;;;;;;;;;;5017592;28;20198;-67
2023/03/15 14:00:32;;;;;;;2.40;0.57;;;;;;;;;;5026169;28;20235;-67
2023/03/15 14:03:05;;;;;;;1.85;0.68;;;;;;;;;;5022902;28;20182;-67
2023/03/15 14:05:35;;;;;;;1.75;0.60;;;;;;;;;;5026120;28;20493;-68
2023/03/15 14:08:12;;;;;;;4.05;0.68;;;;;;;;;;5017057;28;20216;-67
2023/03/15 14:10:38;;;;;;;4.93;0.65;;;;;;;;;;5019519;28;20188;-67
2023/03/15 14:13:25;;;;;;;1.70;0.63;;;;;;;;;;5015104;28;20191;-67
2023/03/15 14:15:56;;;;;;;2.20;0.50;;;;;;;;;;5021602;28;20209;-67
2023/03/15 14:18:43;;;;;;;3.30;0.47;;;;;;;;;;5034674;28;20639;-67
2023/03/15 14:21:19;;;;;;;3.35;0.60;;;;;;;;;;5027692;28;20191;-67
2023/03/15 14:23:47;;;;;;;7.07;0.60;;;;;;;;;;5024469;28;20197;-67
2023/03/15 14:26:20;;;;;;;0.82;0.30;;;;;;;;;;5022062;28;20213;-67
2023/03/15 14:28:53;;;;;;;3.55;0.77;;;;;;;;;;5022074;28;20626;-65
2023/03/15 14:31:29;;;;;;;3.88;0.45;;;;;;;;;;5017150;28;20178;-67
2023/03/15 14:34:06;;;;;;;2.58;0.50;;;;;;;;;;5016894;28;20191;-67
2023/03/15 14:36:40;;;;;;;5.97;0.60;;;;;;;;;;5022395;28;20227;-68
2023/03/15 14:39:28;;;;;;;2.85;0.80;;;;;;;;;;5025622;28;20884;-67
2023/03/15 14:41:54;;;;;;;4.72;0.77;;;;;;;;;;5008943;28;20685;-67
2023/03/15 14:44:20;;;;;;;2.38;0.43;;;;;;;;;;5023257;28;20630;-68
2023/03/15 14:46:46;;;;;;;3.05;0.50;;;;;;;;;;5015114;28;20190;-67
2023/03/15 14:49:26;;;;;;;3.28;0.60;;;;;;;;;;5013776;28;20660;-66
2023/03/15 14:51:58;;;;;;;2.70;0.60;;;;;;;;;;5038716;28;20197;-67